sensor_id;sensor_type;location;lat;lon;timestamp;pressure;altitude;pressure_sealevel;temperature;humidity
20983;BME280;10650;51.528;6.748;2022-12-18T02:37:36;102711.75;;;-4.88;68.83
20983;BME280;10650;51.528;6.748;2022-12-18T03:41:19;102682.41;;;-5.06;68.94
20983;BME280;10650;51.528;6.748;2022-12-18T03:43:52;102677.06;;;-5.08;68.88
20983;BME280;10650;51.528;6.748;2022-12-18T03:46:27;102678.50;;;-5.11;68.67
20983;BME280;10650;51.528;6.748;2022-12-18T03:49:01;102684.38;;;-5.14;68.59
20983;BME280;10650;51.528;6.748;2022-12-18T03:51:40;102685.91;;;-5.16;68.44
20983;BME280;10650;51.528;6.748;2022-12-18T03:54:11;102681.38;;;-5.18;68.69
20983;BME280;10650;51.528;6.748;2022-12-18T03:56:44;102677.84;;;-5.19;68.72
20983;BME280;10650;51.528;6.748;2022-12-18T03:59:14;102675.22;;;-5.19;68.77
20983;BME280;10650;51.528;6.748;2022-12-18T04:01:46;102670.81;;;-5.20;68.36
20983;BME280;10650;51.528;6.748;2022-12-18T04:04:16;102669.75;;;-5.22;68.63
20983;BME280;10650;51.528;6.748;2022-12-18T04:06:46;102671.59;;;-5.21;69.07
20983;BME280;10650;51.528;6.748;2022-12-18T04:09:15;102669.13;;;-5.19;68.85
20983;BME280;10650;51.528;6.748;2022-12-18T04:11:45;102669.25;;;-5.18;68.81
20983;BME280;10650;51.528;6.748;2022-12-18T04:14:14;102662.19;;;-5.19;68.51
20983;BME280;10650;51.528;6.748;2022-12-18T04:16:44;102669.13;;;-5.19;68.32
20983;BME280;10650;51.528;6.748;2022-12-18T04:19:11;102676.16;;;-5.18;68.34
20983;BME280;10650;51.528;6.748;2022-12-18T04:21:39;102672.38;;;-5.22;68.50
20983;BME280;10650;51.528;6.748;2022-12-18T04:24:07;102660.91;;;-5.24;68.77
20983;BME280;10650;51.528;6.748;2022-12-18T04:26:35;102662.84;;;-5.22;69.01
20983;BME280;10650;51.528;6.748;2022-12-18T04:29:06;102662.06;;;-5.21;69.11
20983;BME280;10650;51.528;6.748;2022-12-18T04:31:34;102661.94;;;-5.22;68.98
20983;BME280;10650;51.528;6.748;2022-12-18T04:34:02;102665.31;;;-5.23;68.78
20983;BME280;10650;51.528;6.748;2022-12-18T04:36:29;102654.88;;;-5.23;68.88
20983;BME280;10650;51.528;6.748;2022-12-18T04:38:57;102651.25;;;-5.25;68.96
20983;BME280;10650;51.528;6.748;2022-12-18T04:41:28;102657.38;;;-5.25;68.79
20983;BME280;10650;51.528;6.748;2022-12-18T04:43:55;102652.28;;;-5.23;68.93
20983;BME280;10650;51.528;6.748;2022-12-18T04:46:25;102648.91;;;-5.22;68.99
20983;BME280;10650;51.528;6.748;2022-12-18T04:48:53;102649.69;;;-5.23;69.12
20983;BME280;10650;51.528;6.748;2022-12-18T04:51:21;102646.31;;;-5.22;68.79
20983;BME280;10650;51.528;6.748;2022-12-18T04:53:52;102652.41;;;-5.22;68.97
20983;BME280;10650;51.528;6.748;2022-12-18T04:56:20;102646.94;;;-5.25;68.82
20983;BME280;10650;51.528;6.748;2022-12-18T04:58:48;102645.91;;;-5.27;68.68
20983;BME280;10650;51.528;6.748;2022-12-18T05:01:17;102656.34;;;-5.27;68.68
20983;BME280;10650;51.528;6.748;2022-12-18T05:03:47;102646.03;;;-5.25;68.60
20983;BME280;10650;51.528;6.748;2022-12-18T05:06:15;102646.03;;;-5.25;68.57
20983;BME280;10650;51.528;6.748;2022-12-18T05:08:43;102631.19;;;-5.26;68.60
20983;BME280;10650;51.528;6.748;2022-12-18T05:11:13;102627.66;;;-5.27;68.84
20983;BME280;10650;51.528;6.748;2022-12-18T05:13:43;102632.88;;;-5.27;68.67
20983;BME280;10650;51.528;6.748;2022-12-18T05:16:11;102631.97;;;-5.27;68.31
20983;BME280;10650;51.528;6.748;2022-12-18T05:18:39;102636.25;;;-5.28;68.56
20983;BME280;10650;51.528;6.748;2022-12-18T05:21:09;102637.72;;;-5.31;68.56
20983;BME280;10650;51.528;6.748;2022-12-18T05:23:37;102645.53;;;-5.31;68.45
20983;BME280;10650;51.528;6.748;2022-12-18T05:26:06;102636.13;;;-5.29;68.67
20983;BME280;10650;51.528;6.748;2022-12-18T05:28:35;102637.84;;;-5.30;68.33
20983;BME280;10650;51.528;6.748;2022-12-18T05:31:04;102642.13;;;-5.30;68.83
20983;BME280;10650;51.528;6.748;2022-12-18T05:33:33;102646.44;;;-5.31;68.83
20983;BME280;10650;51.528;6.748;2022-12-18T05:36:03;102646.44;;;-5.31;68.93
20983;BME280;10650;51.528;6.748;2022-12-18T05:38:35;102645.78;;;-5.28;68.76
20983;BME280;10650;51.528;6.748;2022-12-18T05:41:03;102658.69;;;-5.30;68.53
20983;BME280;10650;51.528;6.748;2022-12-18T05:43:33;102654.88;;;-5.33;68.44
20983;BME280;10650;51.528;6.748;2022-12-18T05:46:05;102661.81;;;-5.34;68.55
20983;BME280;10650;51.528;6.748;2022-12-18T05:48:34;102665.94;;;-5.36;68.23
20983;BME280;10650;51.528;6.748;2022-12-18T05:51:06;102665.69;;;-5.39;68.66
20983;BME280;10650;51.528;6.748;2022-12-18T05:53:37;102669.22;;;-5.39;68.79
20983;BME280;10650;51.528;6.748;2022-12-18T05:56:08;102672.75;;;-5.38;68.58
20983;BME280;10650;51.528;6.748;2022-12-18T05:58:37;102680.56;;;-5.38;68.57
20983;BME280;10650;51.528;6.748;2022-12-18T06:01:11;102686.78;;;-5.36;68.99
20983;BME280;10650;51.528;6.748;2022-12-18T06:03:39;102691.09;;;-5.36;68.93
20983;BME280;10650;51.528;6.748;2022-12-18T06:06:15;102693.44;;;-5.40;68.68
20983;BME280;10650;51.528;6.748;2022-12-18T06:08:45;102701.13;;;-5.41;68.69
20983;BME280;10650;51.528;6.748;2022-12-18T06:11:18;102708.81;;;-5.43;68.67
20983;BME280;10650;51.528;6.748;2022-12-18T06:13:49;102703.34;;;-5.46;68.62
20983;BME280;10650;51.528;6.748;2022-12-18T06:16:23;102702.28;;;-5.48;68.54
20983;BME280;10650;51.528;6.748;2022-12-18T06:18:51;102703.19;;;-5.47;68.34
20983;BME280;10650;51.528;6.748;2022-12-18T06:21:19;102697.06;;;-5.48;68.38
20983;BME280;10650;51.528;6.748;2022-12-18T06:23:49;102698.16;;;-5.46;68.44
20983;BME280;10650;51.528;6.748;2022-12-18T06:26:17;102689.91;;;-5.50;68.43
20983;BME280;10650;51.528;6.748;2022-12-18T06:28:51;102695.78;;;-5.53;68.65
20983;BME280;10650;51.528;6.748;2022-12-18T06:31:19;102687.53;;;-5.58;68.60
20983;BME280;10650;51.528;6.748;2022-12-18T06:33:47;102683.00;;;-5.60;68.97
20983;BME280;10650;51.528;6.748;2022-12-18T06:36:15;102687.41;;;-5.59;68.74
20983;BME280;10650;51.528;6.748;2022-12-18T06:38:44;102682.19;;;-5.59;68.73
20983;BME280;10650;51.528;6.748;2022-12-18T06:41:14;102679.59;;;-5.59;68.23
20983;BME280;10650;51.528;6.748;2022-12-18T06:43:43;102675.19;;;-5.60;68.62
20983;BME280;10650;51.528;6.748;2022-12-18T06:46:12;102670.63;;;-5.63;68.37
20983;BME280;10650;51.528;6.748;2022-12-18T06:48:40;102667.06;;;-5.63;68.48
20983;BME280;10650;51.528;6.748;2022-12-18T06:51:08;102662.16;;;-5.60;68.75
20983;BME280;10650;51.528;6.748;2022-12-18T06:53:36;102646.66;;;-5.59;68.83
20983;BME280;10650;51.528;6.748;2022-12-18T06:56:06;102651.88;;;-5.59;68.72
20983;BME280;10650;51.528;6.748;2022-12-18T06:58:38;102645.72;;;-5.59;68.39
20983;BME280;10650;51.528;6.748;2022-12-18T07:01:08;102636.25;;;-5.59;68.38
20983;BME280;10650;51.528;6.748;2022-12-18T07:03:37;102631.69;;;-5.61;68.38
20983;BME280;10650;51.528;6.748;2022-12-18T07:06:06;102636.75;;;-5.63;67.98
20983;BME280;10650;51.528;6.748;2022-12-18T07:08:40;102630.59;;;-5.63;67.96
20983;BME280;10650;51.528;6.748;2022-12-18T07:11:07;102638.44;;;-5.63;68.08
20983;BME280;10650;51.528;6.748;2022-12-18T07:13:35;102641.84;;;-5.64;67.76
20983;BME280;10650;51.528;6.748;2022-12-18T07:16:07;102652.25;;;-5.64;67.71
20983;BME280;10650;51.528;6.748;2022-12-18T07:18:46;102652.25;;;-5.64;67.88
20983;BME280;10650;51.528;6.748;2022-12-18T07:21:16;102650.28;;;-5.67;68.06
20983;BME280;10650;51.528;6.748;2022-12-18T07:23:44;102641.97;;;-5.63;68.31
20983;BME280;10650;51.528;6.748;2022-12-18T07:26:18;102642.72;;;-5.64;68.59
20983;BME280;10650;51.528;6.748;2022-12-18T07:28:46;102646.25;;;-5.63;68.45
20983;BME280;10650;51.528;6.748;2022-12-18T07:31:17;102639.50;;;-5.61;68.65
20983;BME280;10650;51.528;6.748;2022-12-18T07:33:47;102632.44;;;-5.62;67.96
20983;BME280;10650;51.528;6.748;2022-12-18T07:36:15;102635.81;;;-5.63;68.20
20983;BME280;10650;51.528;6.748;2022-12-18T07:38:43;102628.94;;;-5.63;68.01
20983;BME280;10650;51.528;6.748;2022-12-18T07:41:12;102628.94;;;-5.63;67.77
20983;BME280;10650;51.528;6.748;2022-12-18T07:43:41;102633.34;;;-5.62;67.96
20983;BME280;10650;51.528;6.748;2022-12-18T07:46:11;102632.72;;;-5.59;67.85
20983;BME280;10650;51.528;6.748;2022-12-18T07:48:45;102642.09;;;-5.61;68.07
20983;BME280;10650;51.528;6.748;2022-12-18T07:51:16;102648.47;;;-5.58;68.09
20983;BME280;10650;51.528;6.748;2022-12-18T07:53:44;102645.59;;;-5.50;68.29
20983;BME280;10650;51.528;6.748;2022-12-18T07:56:18;102647.72;;;-5.46;68.34
20983;BME280;10650;51.528;6.748;2022-12-18T07:58:56;102646.16;;;-5.44;68.45
20983;BME280;10650;51.528;6.748;2022-12-18T08:01:24;102639.63;;;-5.39;68.56
20983;BME280;10650;51.528;6.748;2022-12-18T08:03:57;102637.41;;;-5.34;68.51
20983;BME280;10650;51.528;6.748;2022-12-18T08:06:25;102640.44;;;-5.30;68.48
20983;BME280;10650;51.528;6.748;2022-12-18T08:08:54;102629.09;;;-5.30;68.25
20983;BME280;10650;51.528;6.748;2022-12-18T08:11:24;102616.75;;;-5.33;68.25
20983;BME280;10650;51.528;6.748;2022-12-18T08:13:53;102619.47;;;-5.31;68.71
20983;BME280;10650;51.528;6.748;2022-12-18T08:16:21;102616.19;;;-5.29;68.63
20983;BME280;10650;51.528;6.748;2022-12-18T08:18:54;102604.34;;;-5.25;68.65
20983;BME280;10650;51.528;6.748;2022-12-18T08:21:23;102602.75;;;-5.23;68.82
20983;BME280;10650;51.528;6.748;2022-12-18T08:23:53;102594.69;;;-5.16;69.04
20983;BME280;10650;51.528;6.748;2022-12-18T08:26:22;102596.13;;;-5.09;68.79
20983;BME280;10650;51.528;6.748;2022-12-18T08:28:53;102587.13;;;-5.02;69.14
20983;BME280;10650;51.528;6.748;2022-12-18T08:31:22;102586.09;;;-4.94;69.10
20983;BME280;10650;51.528;6.748;2022-12-18T08:33:52;102571.84;;;-4.88;69.21
20983;BME280;10650;51.528;6.748;2022-12-18T08:36:24;102579.25;;;-4.82;69.30
20983;BME280;10650;51.528;6.748;2022-12-18T08:38:55;102576.25;;;-4.76;69.26
20983;BME280;10650;51.528;6.748;2022-12-18T08:41:24;102577.69;;;-4.70;69.33
20983;BME280;10650;51.528;6.748;2022-12-18T08:43:52;102577.50;;;-4.61;69.46
20983;BME280;10650;51.528;6.748;2022-12-18T08:46:38;102593.00;;;-4.52;69.60
20983;BME280;10650;51.528;6.748;2022-12-18T08:49:08;102591.53;;;-4.48;69.71
20983;BME280;10650;51.528;6.748;2022-12-18T08:51:38;102582.53;;;-4.42;69.82
20983;BME280;10650;51.528;6.748;2022-12-18T08:54:06;102584.97;;;-4.33;70.13
20983;BME280;10650;51.528;6.748;2022-12-18T08:56:35;102588.88;;;-4.28;70.46
20983;BME280;10650;51.528;6.748;2022-12-18T08:59:05;102585.19;;;-4.20;71.11
20983;BME280;10650;51.528;6.748;2022-12-18T09:01:34;102570.78;;;-4.14;70.83
20983;BME280;10650;51.528;6.748;2022-12-18T09:04:03;102574.03;;;-4.07;71.09
20983;BME280;10650;51.528;6.748;2022-12-18T09:06:36;102568.50;;;-4.00;71.18
20983;BME280;10650;51.528;6.748;2022-12-18T09:09:06;102557.88;;;-3.91;71.25
20983;BME280;10650;51.528;6.748;2022-12-18T09:11:34;102555.72;;;-3.85;71.56
20983;BME280;10650;51.528;6.748;2022-12-18T09:14:02;102555.06;;;-3.82;72.04
20983;BME280;10650;51.528;6.748;2022-12-18T09:16:31;102562.59;;;-3.75;71.73
20983;BME280;10650;51.528;6.748;2022-12-18T09:19:04;102564.78;;;-3.69;72.21
20983;BME280;10650;51.528;6.748;2022-12-18T09:21:34;102561.97;;;-3.60;71.93
20983;BME280;10650;51.528;6.748;2022-12-18T09:24:08;102555.75;;;-3.51;71.87
20983;BME280;10650;51.528;6.748;2022-12-18T09:27:19;102561.25;;;-3.36;72.07
20983;BME280;10650;51.528;6.748;2022-12-18T09:30:15;102561.72;;;-3.29;71.52
20983;BME280;10650;51.528;6.748;2022-12-18T09:33:38;102556.72;;;-3.26;72.42
20983;BME280;10650;51.528;6.748;2022-12-18T09:36:47;102568.78;;;-3.17;72.87
20983;BME280;10650;51.528;6.748;2022-12-18T09:46:18;102556.19;;;-2.87;73.05
20983;BME280;10650;51.528;6.748;2022-12-18T09:49:47;102540.41;;;-2.76;73.24
20983;BME280;10650;51.528;6.748;2022-12-18T09:52:17;102534.84;;;-2.69;73.62
20983;BME280;10650;51.528;6.748;2022-12-18T09:58:38;102524.56;;;-2.54;74.46
20983;BME280;10650;51.528;6.748;2022-12-18T10:01:12;102525.09;;;-2.47;74.53
20983;BME280;10650;51.528;6.748;2022-12-18T10:04:15;102521.66;;;-2.34;74.57
20983;BME280;10650;51.528;6.748;2022-12-18T10:07:01;102527.00;;;-2.20;74.21
20983;BME280;10650;51.528;6.748;2022-12-18T10:09:55;102512.16;;;-2.08;73.77
20983;BME280;10650;51.528;6.748;2022-12-18T10:12:34;102512.13;;;-1.96;73.92
20983;BME280;10650;51.528;6.748;2022-12-18T10:18:59;102506.88;;;-1.71;75.24
20983;BME280;10650;51.528;6.748;2022-12-18T10:21:45;102511.13;;;-1.60;74.67
20983;BME280;10650;51.528;6.748;2022-12-18T10:24:31;102497.94;;;-1.48;74.66
20983;BME280;10650;51.528;6.748;2022-12-18T10:27:11;102499.50;;;-1.38;74.29
20983;BME280;10650;51.528;6.748;2022-12-18T10:29:44;102489.66;;;-1.29;74.30
20983;BME280;10650;51.528;6.748;2022-12-18T10:32:15;102482.19;;;-1.23;74.47
20983;BME280;10650;51.528;6.748;2022-12-18T10:34:47;102476.53;;;-1.15;74.90
20983;BME280;10650;51.528;6.748;2022-12-18T10:37:26;102472.91;;;-1.04;75.47
20983;BME280;10650;51.528;6.748;2022-12-18T10:40:11;102469.09;;;-0.96;75.68
20983;BME280;10650;51.528;6.748;2022-12-18T10:43:03;102474.81;;;-0.88;75.54
20983;BME280;10650;51.528;6.748;2022-12-18T10:45:31;102472.81;;;-0.79;75.43
20983;BME280;10650;51.528;6.748;2022-12-18T10:48:00;102464.72;;;-0.68;74.92
20983;BME280;10650;51.528;6.748;2022-12-18T10:50:32;102455.41;;;-0.63;75.04
20983;BME280;10650;51.528;6.748;2022-12-18T10:53:23;102452.88;;;-0.62;75.18
20983;BME280;10650;51.528;6.748;2022-12-18T10:55:53;102453.19;;;-0.57;75.30
20983;BME280;10650;51.528;6.748;2022-12-18T10:58:38;102444.56;;;-0.55;75.35
20983;BME280;10650;51.528;6.748;2022-12-18T11:01:11;102443.97;;;-0.50;75.24
20983;BME280;10650;51.528;6.748;2022-12-18T11:04:00;102430.50;;;-0.42;74.97
20983;BME280;10650;51.528;6.748;2022-12-18T11:06:55;102414.63;;;-0.30;74.87
20983;BME280;10650;51.528;6.748;2022-12-18T12:25:17;102334.13;;;1.74;64.94
20983;BME280;10650;51.528;6.748;2022-12-18T12:28:23;102327.13;;;1.75;64.26
20983;BME280;10650;51.528;6.748;2022-12-18T15:23:27;102154.84;;;1.90;57.32
20983;BME280;10650;51.528;6.748;2022-12-18T15:25:56;102153.22;;;1.93;57.85
20983;BME280;10650;51.528;6.748;2022-12-18T15:28:26;102156.00;;;1.96;57.79
20983;BME280;10650;51.528;6.748;2022-12-18T15:31:04;102158.72;;;1.97;58.07
20983;BME280;10650;51.528;6.748;2022-12-18T15:33:35;102153.44;;;1.97;57.90
20983;BME280;10650;51.528;6.748;2022-12-18T15:36:08;102152.53;;;1.97;57.44
20983;BME280;10650;51.528;6.748;2022-12-18T15:38:38;102147.28;;;1.97;57.53
20983;BME280;10650;51.528;6.748;2022-12-18T15:41:08;102150.66;;;1.94;57.55
20983;BME280;10650;51.528;6.748;2022-12-18T15:43:40;102147.28;;;1.97;57.32
20983;BME280;10650;51.528;6.748;2022-12-18T15:46:12;102142.88;;;1.97;57.75
20983;BME280;10650;51.528;6.748;2022-12-18T15:48:41;102142.06;;;1.98;57.85
20983;BME280;10650;51.528;6.748;2022-12-18T15:51:13;102153.66;;;2.02;57.76
20983;BME280;10650;51.528;6.748;2022-12-18T15:53:44;102154.56;;;2.02;58.05
20983;BME280;10650;51.528;6.748;2022-12-18T15:56:14;102153.66;;;2.02;58.43
20983;BME280;10650;51.528;6.748;2022-12-18T15:59:01;102148.22;;;1.99;58.10
20983;BME280;10650;51.528;6.748;2022-12-18T16:01:30;102145.53;;;1.97;58.53
20983;BME280;10650;51.528;6.748;2022-12-18T16:04:04;102149.91;;;1.97;58.46
20983;BME280;10650;51.528;6.748;2022-12-18T16:06:33;102152.31;;;1.92;57.87
20983;BME280;10650;51.528;6.748;2022-12-18T16:09:22;102156.59;;;1.90;58.10
20983;BME280;10650;51.528;6.748;2022-12-18T16:11:52;102158.88;;;1.82;58.04
20983;BME280;10650;51.528;6.748;2022-12-18T16:14:23;102149.91;;;1.79;58.63
20983;BME280;10650;51.528;6.748;2022-12-18T16:16:54;102158.13;;;1.85;58.66
20983;BME280;10650;51.528;6.748;2022-12-18T16:19:23;102154.34;;;1.80;58.48
20983;BME280;10650;51.528;6.748;2022-12-18T16:21:54;102158.03;;;1.83;58.38
20983;BME280;10650;51.528;6.748;2022-12-18T16:24:30;102153.69;;;1.84;58.71
20983;BME280;10650;51.528;6.748;2022-12-18T16:27:19;102144.69;;;1.80;58.73
20983;BME280;10650;51.528;6.748;2022-12-18T16:29:47;102156.09;;;1.79;58.79
20983;BME280;10650;51.528;6.748;2022-12-18T16:32:18;102137.63;;;1.79;59.22
20983;BME280;10650;51.528;6.748;2022-12-18T16:34:46;102146.44;;;1.80;59.34
20983;BME280;10650;51.528;6.748;2022-12-18T16:37:17;102141.91;;;1.77;59.08
20983;BME280;10650;51.528;6.748;2022-12-18T16:39:47;102130.41;;;1.75;59.14
20983;BME280;10650;51.528;6.748;2022-12-18T16:42:17;102130.47;;;1.77;59.09
20983;BME280;10650;51.528;6.748;2022-12-18T16:44:47;102134.00;;;1.77;59.29
20983;BME280;10650;51.528;6.748;2022-12-18T16:47:41;102134.91;;;1.78;59.97
20983;BME280;10650;51.528;6.748;2022-12-18T16:50:24;102130.47;;;1.77;59.60
20983;BME280;10650;51.528;6.748;2022-12-18T16:53:00;102131.16;;;1.72;59.93
20983;BME280;10650;51.528;6.748;2022-12-18T16:56:07;102138.25;;;1.73;59.57
20983;BME280;10650;51.528;6.748;2022-12-18T16:58:49;102112.72;;;1.72;60.32
20983;BME280;10650;51.528;6.748;2022-12-18T17:01:20;102111.63;;;1.69;60.39
20983;BME280;10650;51.528;6.748;2022-12-18T17:04:10;102109.19;;;1.72;60.98
20983;BME280;10650;51.528;6.748;2022-12-18T17:06:52;102104.59;;;1.68;60.94
20983;BME280;10650;51.528;6.748;2022-12-18T17:09:54;102106.38;;;1.69;60.86
20983;BME280;10650;51.528;6.748;2022-12-18T17:12:52;102105.41;;;1.67;60.71
20983;BME280;10650;51.528;6.748;2022-12-18T17:15:35;102087.78;;;1.66;61.07
20983;BME280;10650;51.528;6.748;2022-12-18T17:18:09;102094.78;;;1.65;61.18
20983;BME280;10650;51.528;6.748;2022-12-18T17:21:15;102088.91;;;1.71;61.37
20983;BME280;10650;51.528;6.748;2022-12-18T17:24:08;102093.19;;;1.69;61.00
20983;BME280;10650;51.528;6.748;2022-12-18T17:27:22;102094.03;;;1.68;61.88
20983;BME280;10650;51.528;6.748;2022-12-18T17:29:54;102087.91;;;1.69;61.99
20983;BME280;10650;51.528;6.748;2022-12-18T17:32:22;102087.91;;;1.69;62.10
20983;BME280;10650;51.528;6.748;2022-12-18T17:34:51;102079.88;;;1.66;61.80
20983;BME280;10650;51.528;6.748;2022-12-18T17:37:22;102081.53;;;1.64;62.17
20983;BME280;10650;51.528;6.748;2022-12-18T17:40:17;102080.63;;;1.63;62.61
20983;BME280;10650;51.528;6.748;2022-12-18T17:43:27;102086.75;;;1.62;62.32
20983;BME280;10650;51.528;6.748;2022-12-18T17:46:40;102092.75;;;1.60;62.56
20983;BME280;10650;51.528;6.748;2022-12-18T17:49:33;102104.19;;;1.60;63.07
20983;BME280;10650;51.528;6.748;2022-12-18T17:56:27;102100.72;;;1.61;63.10
20983;BME280;10650;51.528;6.748;2022-12-18T18:02:59;102103.38;;;1.61;62.80
20983;BME280;10650;51.528;6.748;2022-12-18T18:05:54;102091.75;;;1.58;62.93
20983;BME280;10650;51.528;6.748;2022-12-18T18:08:24;102090.06;;;1.58;63.83
20983;BME280;10650;51.528;6.748;2022-12-18T19:15:30;102109.47;;;1.42;64.35
20983;BME280;10650;51.528;6.748;2022-12-18T19:18:40;102114.81;;;1.44;64.58
20983;BME280;10650;51.528;6.748;2022-12-18T19:21:22;102108.69;;;1.45;64.34
20983;BME280;10650;51.528;6.748;2022-12-18T19:24:21;102103.59;;;1.48;64.07
20983;BME280;10650;51.528;6.748;2022-12-18T19:35:01;102087.28;;;1.55;64.71
20983;BME280;10650;51.528;6.748;2022-12-18T19:37:45;102078.44;;;1.54;64.38
20983;BME280;10650;51.528;6.748;2022-12-18T19:40:52;102072.44;;;1.57;64.29
20983;BME280;10650;51.528;6.748;2022-12-18T19:43:56;102071.31;;;1.52;64.33
20983;BME280;10650;51.528;6.748;2022-12-18T19:47:29;102070.53;;;1.54;64.51
20983;BME280;10650;51.528;6.748;2022-12-18T19:51:02;102074.09;;;1.55;64.12
20983;BME280;10650;51.528;6.748;2022-12-18T19:55:31;102075.94;;;1.58;64.57
20983;BME280;10650;51.528;6.748;2022-12-18T20:07:28;102081.53;;;1.64;64.00
20983;BME280;10650;51.528;6.748;2022-12-18T20:10:49;102088.63;;;1.65;64.04
20983;BME280;10650;51.528;6.748;2022-12-18T20:21:24;102083.78;;;1.74;63.53
20983;BME280;10650;51.528;6.748;2022-12-18T20:34:12;102093.06;;;1.84;63.29
20983;BME280;10650;51.528;6.748;2022-12-18T20:37:17;102094.88;;;1.85;63.34
20983;BME280;10650;51.528;6.748;2022-12-18T20:40:45;102101.94;;;1.86;63.64
20983;BME280;10650;51.528;6.748;2022-12-18T20:55:07;102107.50;;;1.92;63.83
20983;BME280;10650;51.528;6.748;2022-12-18T20:58:58;102104.78;;;1.90;64.27
20983;BME280;10650;51.528;6.748;2022-12-18T21:03:11;102103.81;;;1.88;64.66
20983;BME280;10650;51.528;6.748;2022-12-18T21:19:59;102086.56;;;1.95;64.96
20983;BME280;10650;51.528;6.748;2022-12-18T21:23:17;102100.72;;;1.97;64.88
20983;BME280;10650;51.528;6.748;2022-12-18T21:31:36;102086.72;;;1.98;65.35
20983;BME280;10650;51.528;6.748;2022-12-18T21:42:38;102088.88;;;2.07;64.90
20983;BME280;10650;51.528;6.748;2022-12-18T21:45:45;102074.63;;;2.03;65.50
20983;BME280;10650;51.528;6.748;2022-12-18T22:36:02;102013.38;;;2.09;68.66
20983;BME280;10650;51.528;6.748;2022-12-18T22:39:28;101997.88;;;2.15;68.48
